createdAt,value
2023-05-20T00:00:53.050Z,99922.91
2023-05-20T00:03:22.733Z,99921.97
2023-05-20T00:05:49.932Z,99920.31
2023-05-20T00:08:19.214Z,99918.59
2023-05-20T00:10:46.309Z,99914.81
2023-05-20T00:13:13.541Z,99913.91
2023-05-20T00:15:41.845Z,99918.25
2023-05-20T00:18:09.284Z,99918.03
2023-05-20T00:20:37.793Z,99915.31
2023-05-20T00:23:05.280Z,99921.34
2023-05-20T00:25:33.125Z,99918.03
2023-05-20T00:28:00.598Z,99917.56
2023-05-20T00:30:28.014Z,99904.22
2023-05-20T00:32:55.255Z,99910.56
2023-05-20T00:35:22.297Z,99912.38
2023-05-20T00:37:51.387Z,99909.81
2023-05-20T00:40:18.770Z,99907.94
2023-05-20T00:42:46.063Z,99904.59
2023-05-20T00:45:13.435Z,99900.75
2023-05-20T00:47:49.783Z,99888.59
2023-05-20T00:50:43.161Z,99891.44
2023-05-20T00:53:11.878Z,99893.94
2023-05-20T00:55:39.375Z,99894.28
2023-05-20T00:58:06.574Z,99895.50
2023-05-20T01:00:33.708Z,99892.31
2023-05-20T01:03:51.291Z,99892.44
2023-05-20T01:06:18.291Z,99894.34
2023-05-20T01:08:47.995Z,99892.22
2023-05-20T01:11:29.097Z,99896.94
2023-05-20T01:14:07.616Z,99896.94
2023-05-20T01:16:38.220Z,99893.66
2023-05-20T01:19:21.728Z,99891.50
2023-05-20T01:21:53.359Z,99890.25
2023-05-20T01:24:21.670Z,99889.81
2023-05-20T01:26:48.658Z,99890.63
2023-05-20T01:29:15.854Z,99894.78
2023-05-20T01:31:43.156Z,99896.19
2023-05-20T01:34:13.202Z,99889.22
2023-05-20T01:36:41.451Z,99886.03
2023-05-20T01:39:09.157Z,99891.72
2023-05-20T01:41:39.402Z,99889.38
2023-05-20T01:44:07.038Z,99893.72
2023-05-20T01:46:35.557Z,99899.78
2023-05-20T01:49:03.024Z,99883.22
2023-05-20T01:51:30.080Z,99874.84
2023-05-20T01:53:57.255Z,99878.50
2023-05-20T01:56:24.432Z,99879.56
2023-05-20T01:58:52.972Z,99878.97
2023-05-20T02:01:21.364Z,99883.59
2023-05-20T02:03:49.956Z,99881.94
2023-05-20T02:06:20.541Z,99882.75
2023-05-20T02:08:48.099Z,99881.13
2023-05-20T02:11:15.084Z,99877.56
2023-05-20T02:13:41.941Z,99877.44
2023-05-20T02:16:11.045Z,99881.22
2023-05-20T02:18:38.480Z,99878.50
2023-05-20T02:21:05.891Z,99881.22
2023-05-20T02:23:33.105Z,99875.53
2023-05-20T02:26:01.823Z,99874.25
2023-05-20T02:28:28.944Z,99874.84
2023-05-20T02:30:55.902Z,99867.16
2023-05-20T02:33:24.619Z,99865.84
2023-05-20T02:35:51.548Z,99867.28
2023-05-20T02:38:18.728Z,99870.00
2023-05-20T02:40:45.754Z,99867.63
2023-05-20T02:43:12.839Z,99863.84
2023-05-20T02:45:40.636Z,99859.25
2023-05-20T02:48:08.859Z,99857.59
2023-05-20T02:50:39.843Z,99863.03
2023-05-20T02:53:07.033Z,99866.00
2023-05-20T02:55:35.725Z,99866.78
2023-05-20T02:58:02.904Z,99868.47
2023-05-20T03:00:32.914Z,99861.84
2023-05-20T03:03:00.079Z,99863.75
2023-05-20T03:05:28.683Z,99857.69
2023-05-20T03:08:03.617Z,99861.59
2023-05-20T03:10:31.041Z,99862.91
2023-05-20T03:13:00.817Z,99864.56
2023-05-20T03:15:28.138Z,99862.31
2023-05-20T03:17:55.125Z,99862.56
2023-05-20T03:20:23.692Z,99858.88
2023-05-20T03:22:50.760Z,99853.81
2023-05-20T03:25:19.961Z,99850.00
2023-05-20T03:27:46.865Z,99851.69
2023-05-20T03:30:13.978Z,99859.13
2023-05-20T03:32:41.445Z,99867.63
2023-05-20T03:35:09.796Z,99864.69
2023-05-20T03:37:37.416Z,99871.19
2023-05-20T03:40:07.463Z,99871.75
2023-05-20T03:42:37.553Z,99863.38
2023-05-20T03:45:06.000Z,99868.34
2023-05-20T03:47:38.531Z,99860.56
2023-05-20T03:50:07.789Z,99870.34
2023-05-20T03:52:35.552Z,99872.59
2023-05-20T03:55:03.126Z,99863.97
2023-05-20T03:57:30.896Z,99864.34
2023-05-20T03:59:59.346Z,99861.88
2023-05-20T04:02:26.478Z,99867.66
2023-05-20T04:04:53.486Z,99865.19
2023-05-20T04:07:20.683Z,99867.44
2023-05-20T04:09:50.782Z,99866.97
2023-05-20T04:12:17.799Z,99869.31
2023-05-20T04:14:44.746Z,99864.25
2023-05-20T04:17:13.115Z,99866.59
2023-05-20T04:19:40.190Z,99873.69
2023-05-20T04:22:07.723Z,99868.25
2023-05-20T04:24:34.807Z,99864.09
2023-05-20T04:27:01.815Z,99872.25
2023-05-20T04:29:29.301Z,99868.09
2023-05-20T04:31:56.435Z,99861.94
2023-05-20T04:34:24.742Z,99863.16
2023-05-20T04:36:52.304Z,99852.59
2023-05-20T04:39:19.183Z,99851.06
2023-05-20T04:41:46.365Z,99851.06
2023-05-20T04:44:13.504Z,99850.59
2023-05-20T04:46:40.441Z,99841.59
2023-05-20T04:49:07.670Z,99836.50
2023-05-20T04:51:36.163Z,99843.63
2023-05-20T04:54:03.419Z,99839.00
2023-05-20T04:56:30.697Z,99840.50
2023-05-20T04:58:57.675Z,99834.03
2023-05-20T05:01:24.836Z,99836.38
2023-05-20T05:03:52.019Z,99838.50
2023-05-20T05:06:19.058Z,99837.78
2023-05-20T05:08:47.406Z,99848.25
2023-05-20T05:11:14.717Z,99842.56
2023-05-20T05:13:41.648Z,99833.88
2023-05-20T05:16:08.658Z,99838.09
2023-05-20T05:18:39.120Z,99829.63
2023-05-20T05:21:07.970Z,99835.00
2023-05-20T05:23:37.595Z,99825.06
2023-05-20T05:26:06.866Z,99824.88
2023-05-20T05:28:33.910Z,99826.06
2023-05-20T05:31:01.236Z,99826.28
2023-05-20T05:33:28.796Z,99820.22
2023-05-20T05:35:56.117Z,99836.59
2023-05-20T05:38:22.977Z,99832.16
2023-05-20T05:40:50.028Z,99830.50
2023-05-20T05:43:19.131Z,99823.75
2023-05-20T05:45:48.142Z,99812.50
2023-05-20T05:48:15.339Z,99813.16
2023-05-20T05:50:44.859Z,99823.50
2023-05-20T05:53:12.330Z,99822.50
2023-05-20T05:55:41.554Z,99821.78
2023-05-20T05:58:08.597Z,99818.13
2023-05-20T06:00:36.979Z,99818.03
2023-05-20T06:03:05.205Z,99819.75
2023-05-20T06:05:35.805Z,99817.56
2023-05-20T06:08:03.185Z,99806.06
2023-05-20T06:10:33.236Z,99797.31
2023-05-20T06:13:00.454Z,99812.31
2023-05-20T06:15:28.003Z,99807.56
2023-05-20T06:17:57.728Z,99807.38
2023-05-20T06:20:25.982Z,99800.25
2023-05-20T06:22:54.059Z,99798.91
2023-05-20T06:25:22.747Z,99801.69
2023-05-20T06:27:50.399Z,99815.75
2023-05-20T06:30:19.820Z,99813.44
2023-05-20T06:32:47.720Z,99804.63
2023-05-20T06:35:17.100Z,99798.94
2023-05-20T06:37:44.109Z,99791.13
2023-05-20T06:40:12.733Z,99788.31
2023-05-20T06:42:41.046Z,99776.47
2023-05-20T06:45:10.187Z,99795.16
2023-05-20T06:47:51.530Z,99787.66
2023-05-20T06:50:22.185Z,99784.47
2023-05-20T06:52:49.491Z,99779.13
2023-05-20T06:55:16.958Z,99772.78
2023-05-20T06:57:44.600Z,99774.94
2023-05-20T07:00:13.944Z,99775.94
2023-05-20T07:02:42.664Z,99774.22
2023-05-20T07:05:12.497Z,99770.31
2023-05-20T07:07:41.106Z,99775.28
2023-05-20T07:10:10.127Z,99768.22
2023-05-20T07:12:38.113Z,99772.22
2023-05-20T07:15:07.017Z,99774.03
2023-05-20T07:17:35.817Z,99764.28
2023-05-20T07:20:04.774Z,99757.38
2023-05-20T07:22:32.920Z,99748.41
2023-05-20T07:25:16.815Z,99748.97
2023-05-20T07:27:43.817Z,99751.66
2023-05-20T07:30:11.250Z,99749.69
2023-05-20T07:32:40.349Z,99754.19
2023-05-20T07:35:08.474Z,99740.16
2023-05-20T07:37:36.031Z,99740.44
2023-05-20T07:40:08.089Z,99745.50
2023-05-20T07:42:37.093Z,99734.16
2023-05-20T07:45:05.785Z,99729.53
2023-05-20T07:47:34.249Z,99732.69
2023-05-20T07:50:02.133Z,99735.78
2023-05-20T07:52:38.169Z,99742.13
2023-05-20T07:55:14.496Z,99730.88
2023-05-20T07:57:44.846Z,99725.38
2023-05-20T08:00:13.116Z,99729.00
2023-05-20T08:02:44.320Z,99734.28
2023-05-20T08:05:15.580Z,99721.28
2023-05-20T08:07:42.727Z,99722.50
2023-05-20T08:10:10.975Z,99714.06
2023-05-20T08:12:48.717Z,99721.25
2023-05-20T08:15:16.024Z,99700.38
2023-05-20T08:17:43.493Z,99698.00
2023-05-20T08:20:13.035Z,99699.44
2023-05-20T08:22:40.337Z,99698.28
2023-05-20T08:25:10.342Z,99707.50
2023-05-20T08:27:38.266Z,99699.53
2023-05-20T08:30:10.727Z,99704.94
2023-05-20T08:32:38.250Z,99703.16
2023-05-20T08:35:07.866Z,99704.47
2023-05-20T08:37:35.312Z,99696.53
2023-05-20T08:40:02.526Z,99694.47
2023-05-20T08:42:30.953Z,99692.09
2023-05-20T08:45:02.564Z,99692.09
2023-05-20T08:47:33.182Z,99691.69
2023-05-20T08:50:00.402Z,99699.88
2023-05-20T08:52:28.832Z,99701.22
2023-05-20T08:54:58.209Z,99694.94
2023-05-20T08:57:27.166Z,99689.47
2023-05-20T08:59:54.298Z,99689.06
2023-05-20T09:02:21.546Z,99686.44
2023-05-20T09:04:49.902Z,99695.78
2023-05-20T09:07:27.326Z,99686.91
2023-05-20T09:09:56.417Z,99697.09
2023-05-20T09:12:24.322Z,99709.16
2023-05-20T09:14:51.519Z,99705.91
2023-05-20T09:17:18.871Z,99699.06
2023-05-20T09:19:49.989Z,99695.94
2023-05-20T09:22:22.960Z,99684.91
2023-05-20T09:24:50.283Z,99685.53
2023-05-20T09:27:17.431Z,99691.69
2023-05-20T09:29:44.822Z,99682.00
2023-05-20T09:32:14.005Z,99674.09
2023-05-20T09:34:41.705Z,99671.75
2023-05-20T09:37:11.348Z,99673.28
2023-05-20T09:39:55.479Z,99687.06
2023-05-20T09:42:26.877Z,99678.47
2023-05-20T09:44:54.544Z,99677.97
2023-05-20T09:47:23.176Z,99670.22
2023-05-20T09:49:52.526Z,99667.13
2023-05-20T09:52:22.305Z,99659.22
2023-05-20T09:54:50.859Z,99661.66
2023-05-20T09:57:18.652Z,99665.16
2023-05-20T09:59:47.906Z,99662.53
2023-05-20T10:02:15.012Z,99648.59
2023-05-20T10:04:49.884Z,99664.22
2023-05-20T10:08:02.619Z,99657.72
2023-05-20T10:10:46.124Z,99654.66
2023-05-20T10:13:35.080Z,99643.34
2023-05-20T10:16:19.739Z,99644.69
2023-05-20T10:19:08.145Z,99655.66
2023-05-20T10:21:35.465Z,99638.22
2023-05-20T10:24:11.480Z,99638.53
2023-05-20T10:26:41.297Z,99639.25
2023-05-20T10:29:18.674Z,99637.59
2023-05-20T10:31:50.017Z,99635.59
2023-05-20T10:34:18.927Z,99635.28
2023-05-20T10:36:57.522Z,99639.69
2023-05-20T10:39:30.258Z,99633.63
2023-05-20T10:42:07.492Z,99626.84
2023-05-20T10:44:44.396Z,99628.28
2023-05-20T10:49:44.885Z,99616.13
2023-05-20T10:52:12.836Z,99622.81
2023-05-20T10:54:47.349Z,99617.28
2023-05-20T10:57:16.627Z,99618.38
2023-05-20T10:59:43.812Z,99601.59
2023-05-20T11:02:11.682Z,99599.44
2023-05-20T11:04:39.528Z,99604.22
2023-05-20T11:07:14.564Z,99600.25
2023-05-20T11:09:50.105Z,99598.09
2023-05-20T11:12:17.460Z,99584.53
2023-05-20T11:14:44.903Z,99586.00
2023-05-20T11:17:12.111Z,99595.06
2023-05-20T11:19:39.071Z,99594.47
2023-05-20T11:22:07.836Z,99581.81
2023-05-20T11:24:34.915Z,99582.78
2023-05-20T11:27:03.656Z,99582.63
2023-05-20T11:29:30.824Z,99577.94
2023-05-20T11:31:59.774Z,99571.59
2023-05-20T11:34:34.212Z,99577.88
2023-05-20T11:37:01.169Z,99558.38
2023-05-20T11:39:30.937Z,99571.72
2023-05-20T11:41:58.866Z,99552.78
2023-05-20T11:44:27.374Z,99565.31
2023-05-20T11:47:00.881Z,99565.06
2023-05-20T11:49:28.261Z,99555.09
2023-05-20T11:51:56.472Z,99573.75
2023-05-20T11:54:27.581Z,99568.66
2023-05-20T11:56:55.132Z,99552.06
2023-05-20T11:59:24.654Z,99544.59
2023-05-20T12:01:53.168Z,99547.47
2023-05-20T12:04:20.298Z,99551.56
2023-05-20T12:06:47.419Z,99536.63
2023-05-20T12:09:16.124Z,99539.66
2023-05-20T12:11:43.110Z,99534.13
2023-05-20T12:14:10.292Z,99540.09
2023-05-20T12:16:38.606Z,99542.00
2023-05-20T12:19:06.984Z,99541.31
2023-05-20T12:21:34.613Z,99535.50
2023-05-20T12:24:01.747Z,99534.66
2023-05-20T12:26:30.145Z,99529.63
2023-05-20T12:28:57.344Z,99520.00
2023-05-20T12:31:26.804Z,99523.66
2023-05-20T12:33:53.850Z,99524.75
2023-05-20T12:36:23.765Z,99512.59
2023-05-20T12:38:50.796Z,99514.09
2023-05-20T12:41:19.242Z,99505.84
2023-05-20T12:43:46.308Z,99504.66
2023-05-20T12:46:13.498Z,99509.22
2023-05-20T12:48:42.611Z,99516.56
2023-05-20T12:51:09.960Z,99512.41
2023-05-20T12:53:38.248Z,99510.31
2023-05-20T12:56:07.975Z,99504.31
2023-05-20T12:58:35.017Z,99506.25
2023-05-20T13:01:02.308Z,99502.75
2023-05-20T13:03:30.756Z,99505.66
2023-05-20T13:05:58.062Z,99504.22
2023-05-20T13:08:26.497Z,99504.03
2023-05-20T13:10:55.667Z,99499.44
2023-05-20T13:13:24.514Z,99491.34
2023-05-20T13:15:51.627Z,99494.59
2023-05-20T13:18:18.604Z,99498.47
2023-05-20T13:20:47.241Z,99498.38
2023-05-20T13:23:14.740Z,99484.00
2023-05-20T13:25:41.590Z,99502.13
2023-05-20T13:28:10.777Z,99497.72
2023-05-20T13:30:40.136Z,99499.66
2023-05-20T13:33:07.467Z,99494.28
2023-05-20T13:35:34.836Z,99491.06
2023-05-20T13:38:02.498Z,99480.00
2023-05-20T13:40:54.963Z,99473.31
2023-05-20T13:43:23.723Z,99469.00
2023-05-20T13:45:53.745Z,99472.47
2023-05-20T13:48:20.945Z,99465.84
2023-05-20T13:50:48.056Z,99474.53
2023-05-20T13:53:15.118Z,99454.13
2023-05-20T13:55:42.396Z,99463.84
2023-05-20T13:58:09.729Z,99448.50
2023-05-20T14:00:38.783Z,99452.50
2023-05-20T14:03:05.838Z,99436.59
2023-05-20T14:10:11.084Z,99432.63
2023-05-20T14:12:38.675Z,99446.69
2023-05-20T14:15:07.952Z,99443.50
2023-05-20T14:17:36.254Z,99444.84
2023-05-20T14:20:03.689Z,99437.50
2023-05-20T14:22:30.680Z,99430.16
2023-05-20T14:24:58.516Z,99426.41
2023-05-20T14:27:25.474Z,99424.97
2023-05-20T14:29:52.409Z,99419.81
2023-05-20T14:32:24.802Z,99425.34
2023-05-20T14:34:53.490Z,99414.72
2023-05-20T14:37:20.539Z,99418.16
2023-05-20T14:39:47.519Z,99410.31
2023-05-20T14:42:14.422Z,99412.03
2023-05-20T14:44:41.326Z,99401.84
2023-05-20T14:47:08.273Z,99392.25
2023-05-20T14:49:37.012Z,99396.34
2023-05-20T14:52:05.988Z,99391.50
2023-05-20T14:54:33.042Z,99396.34
2023-05-20T14:57:00.064Z,99392.06
2023-05-20T14:59:27.080Z,99376.94
2023-05-20T15:01:54.157Z,99390.22
2023-05-20T15:04:21.062Z,99390.72
2023-05-20T15:06:48.311Z,99391.84
2023-05-20T15:09:17.844Z,99397.22
2023-05-20T15:11:45.273Z,99395.28
2023-05-20T15:14:12.198Z,99404.47
2023-05-20T15:16:39.142Z,99401.56
2023-05-20T15:19:06.365Z,99394.25
2023-05-20T15:21:33.674Z,99399.88
2023-05-20T15:24:00.623Z,99402.94
2023-05-20T15:26:31.894Z,99402.91
2023-05-20T15:28:59.526Z,99407.16
2023-05-20T15:31:29.618Z,99421.53
2023-05-20T15:33:56.629Z,99404.00
2023-05-20T15:36:24.427Z,99412.84
2023-05-20T15:38:51.349Z,99421.75
2023-05-20T15:41:18.462Z,99416.47
2023-05-20T15:43:46.661Z,99410.28
2023-05-20T15:46:15.038Z,99408.34
2023-05-20T15:48:42.047Z,99404.00
2023-05-20T15:51:09.047Z,99398.47
2023-05-20T15:53:38.129Z,99409.13
2023-05-20T15:56:08.773Z,99403.97
2023-05-20T15:58:36.905Z,99403.88
2023-05-20T16:01:05.620Z,99398.47
2023-05-20T16:03:32.742Z,99402.72
2023-05-20T16:06:00.002Z,99406.44
2023-05-20T16:08:27.660Z,99416.84
2023-05-20T16:10:54.764Z,99406.66
2023-05-20T16:13:22.900Z,99401.34
2023-05-20T16:15:50.110Z,99398.72
2023-05-20T16:18:18.729Z,99398.75
2023-05-20T16:20:45.611Z,99398.44
2023-05-20T16:23:12.549Z,99404.06
2023-05-20T16:25:39.451Z,99401.34
2023-05-20T16:28:06.327Z,99397.25
2023-05-20T16:30:35.360Z,99398.69
2023-05-20T16:33:02.492Z,99393.50
2023-05-20T16:35:31.201Z,99397.56
2023-05-20T16:37:58.096Z,99406.75
2023-05-20T16:40:24.989Z,99402.03
2023-05-20T16:42:52.439Z,99404.81
2023-05-20T16:45:20.493Z,99410.44
2023-05-20T16:47:47.894Z,99407.53
2023-05-20T16:50:14.911Z,99405.31
2023-05-20T16:52:43.401Z,99404.50
2023-05-20T16:55:10.886Z,99404.06
2023-05-20T16:57:38.615Z,99407.66
2023-05-20T17:00:08.208Z,99407.47
2023-05-20T17:02:35.976Z,99400.13
2023-05-20T17:05:02.962Z,99402.78
2023-05-20T17:07:30.192Z,99398.47
2023-05-20T17:09:58.530Z,99395.91
2023-05-20T17:12:25.782Z,99402.38
2023-05-20T17:14:53.051Z,99390.63
2023-05-20T17:17:19.975Z,99402.25
2023-05-20T17:19:46.892Z,99408.94
2023-05-20T17:22:13.938Z,99405.19
2023-05-20T17:24:41.080Z,99405.94
2023-05-20T17:27:09.364Z,99391.50
2023-05-20T17:29:36.305Z,99398.56
2023-05-20T17:32:03.648Z,99406.28
2023-05-20T17:34:30.637Z,99397.00
2023-05-20T17:36:58.253Z,99411.31
2023-05-20T17:39:25.393Z,99416.81
2023-05-20T17:41:52.308Z,99410.34
2023-05-20T17:44:20.556Z,99414.31
2023-05-20T17:46:50.243Z,99416.63
2023-05-20T17:49:19.667Z,99420.59
2023-05-20T17:51:46.548Z,99417.53
2023-05-20T17:54:14.131Z,99420.78
2023-05-20T17:56:41.907Z,99422.28
2023-05-20T17:59:09.019Z,99424.00
2023-05-20T18:01:37.245Z,99426.53
2023-05-20T18:04:05.382Z,99428.84
2023-05-20T18:06:33.038Z,99428.72
2023-05-20T18:09:01.230Z,99432.59
2023-05-20T18:11:28.311Z,99444.06
2023-05-20T18:13:55.599Z,99438.53
2023-05-20T18:16:22.574Z,99445.25
2023-05-20T18:18:50.956Z,99450.53
2023-05-20T18:21:18.654Z,99447.78
2023-05-20T18:23:45.808Z,99445.63
2023-05-20T18:26:13.359Z,99438.75
2023-05-20T18:28:40.340Z,99439.44
2023-05-20T18:31:07.952Z,99445.03
2023-05-20T18:33:35.058Z,99432.56
2023-05-20T18:36:04.153Z,99434.41
2023-05-20T18:38:31.072Z,99429.81
2023-05-20T18:40:58.531Z,99423.03
2023-05-20T18:43:25.776Z,99437.66
2023-05-20T18:45:52.842Z,99428.69
2023-05-20T18:48:26.760Z,99425.66
2023-05-20T18:50:54.282Z,99435.03
2023-05-20T18:53:22.784Z,99417.72
2023-05-20T18:55:49.907Z,99426.53
2023-05-20T18:58:16.880Z,99430.25
2023-05-20T19:00:43.862Z,99431.34
2023-05-20T19:03:10.774Z,99432.00
2023-05-20T19:05:37.925Z,99427.66
2023-05-20T19:08:05.712Z,99427.06
2023-05-20T19:10:36.610Z,99431.75
2023-05-20T19:13:04.004Z,99430.72
2023-05-20T19:15:30.892Z,99439.03
2023-05-20T19:17:57.943Z,99431.13
2023-05-20T19:20:25.161Z,99443.81
2023-05-20T19:22:52.389Z,99448.31
2023-05-20T19:25:19.609Z,99456.53
2023-05-20T19:27:48.271Z,99454.94
2023-05-20T19:30:15.423Z,99453.25
2023-05-20T19:32:42.472Z,99456.03
2023-05-20T19:35:09.938Z,99462.63
2023-05-20T19:37:37.128Z,99463.97
2023-05-20T19:40:05.250Z,99464.84
2023-05-20T19:42:32.385Z,99472.84
2023-05-20T19:45:00.596Z,99465.47
2023-05-20T19:47:27.582Z,99460.81
2023-05-20T19:49:54.574Z,99468.22
2023-05-20T19:52:21.611Z,99468.28
2023-05-20T19:54:48.646Z,99469.34
2023-05-20T19:57:15.730Z,99466.41
2023-05-20T19:59:42.831Z,99472.47
2023-05-20T20:02:11.197Z,99465.38
2023-05-20T20:04:38.119Z,99475.88
2023-05-20T20:07:05.141Z,99476.13
2023-05-20T20:09:32.519Z,99480.53
2023-05-20T20:11:59.526Z,99475.03
2023-05-20T20:14:27.031Z,99478.09
2023-05-20T20:16:53.974Z,99472.34
2023-05-20T20:19:22.997Z,99477.84
2023-05-20T20:21:54.951Z,99473.47
2023-05-20T20:24:22.594Z,99469.34
2023-05-20T20:26:49.655Z,99467.16
2023-05-20T20:29:16.736Z,99465.25
2023-05-20T20:31:45.049Z,99467.69
2023-05-20T20:34:12.002Z,99474.25
2023-05-20T20:36:41.044Z,99468.47
2023-05-20T20:39:09.433Z,99459.19
2023-05-20T20:41:36.309Z,99465.25
2023-05-20T20:44:03.179Z,99461.44
2023-05-20T20:46:30.163Z,99471.56
2023-05-20T20:48:57.075Z,99465.78
2023-05-20T20:51:24.840Z,99467.75
2023-05-20T20:53:53.367Z,99466.38
2023-05-20T20:56:21.381Z,99462.84
2023-05-20T20:58:48.400Z,99467.22
2023-05-20T21:01:15.314Z,99461.47
2023-05-20T21:03:42.326Z,99467.22
2023-05-20T21:06:10.380Z,99466.94
2023-05-20T21:08:37.277Z,99457.06
2023-05-20T21:11:06.015Z,99466.38
2023-05-20T21:13:32.821Z,99459.84
2023-05-20T21:16:00.132Z,99460.91
2023-05-20T21:18:27.037Z,99462.28
2023-05-20T21:20:55.040Z,99465.81
2023-05-20T21:23:22.783Z,99465.25
2023-05-20T21:25:50.107Z,99464.19
2023-05-20T21:28:18.549Z,99459.28
2023-05-20T21:30:45.445Z,99459.84
2023-05-20T21:33:12.378Z,99455.75
2023-05-20T21:35:39.325Z,99459.63
2023-05-20T21:38:11.380Z,99465.66
2023-05-20T21:40:38.377Z,99456.38
2023-05-20T21:43:05.324Z,99454.72
2023-05-20T21:45:33.737Z,99454.44
2023-05-20T21:48:00.960Z,99444.31
2023-05-20T21:50:27.775Z,99449.53
2023-05-20T21:52:55.425Z,99447.34
2023-05-20T21:55:22.798Z,99446.00
2023-05-20T21:57:50.227Z,99440.78
2023-05-20T22:00:18.736Z,99439.16
2023-05-20T22:02:47.558Z,99439.72
2023-05-20T22:05:14.596Z,99427.13
2023-05-20T22:07:41.540Z,99436.16
2023-05-20T22:10:09.390Z,99430.94
2023-05-20T22:12:36.389Z,99427.41
2023-05-20T22:15:04.197Z,99422.22
2023-05-20T22:17:31.338Z,99426.59
2023-05-20T22:19:59.704Z,99414.53
2023-05-20T22:22:26.626Z,99411.53
2023-05-20T22:24:54.391Z,99409.91
2023-05-20T22:33:11.121Z,99406.69
2023-05-20T22:36:10.505Z,99399.81
2023-05-20T22:38:37.593Z,99397.06
2023-05-20T22:41:04.587Z,99401.19
2023-05-20T22:44:46.024Z,99395.44
2023-05-20T22:59:47.571Z,99391.91
2023-05-20T23:02:20.319Z,99387.81
2023-05-20T23:04:50.420Z,99394.09
2023-05-20T23:07:23.614Z,99385.34
2023-05-20T23:09:50.547Z,99389.19
2023-05-20T23:12:18.836Z,99387.84
2023-05-20T23:14:45.751Z,99379.91
2023-05-20T23:17:12.665Z,99374.94
2023-05-20T23:19:39.658Z,99379.88
2023-05-20T23:22:06.542Z,99375.22
2023-05-20T23:24:33.447Z,99373.59
2023-05-20T23:27:00.334Z,99370.28
2023-05-20T23:32:10.451Z,99367.03
2023-05-20T23:34:40.252Z,99370.56
2023-05-20T23:37:29.406Z,99366.47
2023-05-20T23:39:57.298Z,99373.59
2023-05-20T23:42:24.373Z,99375.22
2023-05-20T23:44:52.774Z,99371.69
2023-05-20T23:47:21.655Z,99372.50
2023-05-20T23:49:49.613Z,99368.13
2023-05-20T23:52:16.592Z,99367.84
2023-05-20T23:54:43.579Z,99369.25
2023-05-20T23:57:10.560Z,99368.41
2023-05-20T23:59:40.325Z,99359.63
